Time;durP1;ratioP1;P1;durP2;ratioP2;P2;SDS_P1;SDS_P2;PMS_P1;PMS_P2;Temp;Humidity;BMP_temperature;BMP_pressure;BME280_temperature;BME280_humidity;BME280_pressure;Samples;Min_cycle;Max_cycle;Signal;HPM_P1;HPM_P2
2022/10/09 00:02:05;;;;;;;13.90;3.10;;;;;;;6.80;100.00;101882.19;7391565;19;20964;-58
2022/10/09 00:04:38;;;;;;;16.87;3.27;;;;;;;6.84;100.00;101884.22;7401347;19;20392;-57
2022/10/09 00:07:07;;;;;;;13.77;3.00;;;;;;;6.83;100.00;101877.28;7394763;19;20413;-54
2022/10/09 00:09:36;;;;;;;14.53;3.10;;;;;;;6.84;100.00;101873.97;7397431;19;21143;-60
2022/10/09 00:12:06;;;;;;;11.37;3.40;;;;;;;6.80;100.00;101879.63;7391638;19;20432;-58
2022/10/09 00:14:35;;;;;;;9.50;3.10;;;;;;;6.80;100.00;101871.03;7397072;19;20381;-57
2022/10/09 00:17:05;;;;;;;13.97;3.07;;;;;;;6.79;100.00;101876.94;7394242;19;20437;-53
2022/10/09 00:19:34;;;;;;;7.77;2.70;;;;;;;6.74;100.00;101868.91;7398061;19;20908;-54
2022/10/09 00:22:06;;;;;;;22.03;3.90;;;;;;;6.71;100.00;101874.69;7392023;19;20413;-54
2022/10/09 00:24:36;;;;;;;14.83;2.63;;;;;;;6.69;100.00;101877.94;7396638;19;20719;-58
2022/10/09 00:27:05;;;;;;;18.83;3.53;;;;;;;6.68;100.00;101876.16;7394170;19;20781;-52
2022/10/09 00:29:34;;;;;;;16.10;4.20;;;;;;;6.67;100.00;101880.38;7396859;19;20413;-57
2022/10/09 00:32:04;;;;;;;10.70;3.00;;;;;;;6.69;100.00;101885.63;7391471;19;20443;-53
2022/10/09 00:34:33;;;;;;;14.00;2.93;;;;;;;6.73;100.00;101900.47;7396374;19;20367;-54
2022/10/09 00:37:06;;;;;;;11.07;3.43;;;;;;;6.70;100.00;101896.00;7392510;19;20443;-53
2022/10/09 00:39:35;;;;;;;12.07;3.00;;;;;;;6.71;100.00;101907.13;7396006;19;20385;-55
2022/10/09 00:42:05;;;;;;;10.30;3.37;;;;;;;6.69;100.00;101893.31;7390619;19;20411;-51
2022/10/09 00:44:56;;;;;;;13.13;2.57;;;;;;;6.72;100.00;101898.69;7396308;19;20485;-52
2022/10/09 00:47:30;;;;;;;16.17;3.23;;;;;;;6.73;100.00;101900.47;7392770;19;20433;-51
2022/10/09 00:50:02;;;;;;;11.27;2.80;;;;;;;6.68;100.00;101906.94;7395966;19;20919;-53
2022/10/09 00:52:34;;;;;;;13.63;2.70;;;;;;;6.67;100.00;101907.72;7390542;19;20804;-58
2022/10/09 00:55:04;;;;;;;13.60;2.77;;;;;;;6.71;100.00;101912.28;7395549;19;20393;-51
2022/10/09 00:57:34;;;;;;;13.33;3.10;;;;;;;6.68;100.00;101912.97;7393069;19;20409;-55
2022/10/09 01:00:07;;;;;;;10.97;3.10;;;;;;;6.68;100.00;101904.34;7395281;19;20903;-56
2022/10/09 01:02:37;;;;;;;8.93;2.77;;;;;;;6.67;100.00;101906.00;7389256;19;20801;-52
2022/10/09 01:05:08;;;;;;;12.17;2.63;;;;;;;6.66;100.00;101911.06;7395196;19;20397;-57
2022/10/09 01:07:46;;;;;;;8.20;2.20;;;;;;;6.69;100.00;101909.63;7389188;19;20704;-52
2022/10/09 01:10:27;;;;;;;15.33;2.93;;;;;;;6.62;100.00;101908.25;7395512;19;20385;-53
2022/10/09 01:13:03;;;;;;;24.77;3.80;;;;;;;6.65;100.00;101901.56;7392153;19;20437;-53
2022/10/09 01:15:37;;;;;;;12.43;2.57;;;;;;;6.61;100.00;101908.13;7390362;19;20381;-52
2022/10/09 01:18:10;;;;;;;16.23;2.90;;;;;;;6.62;100.00;101905.69;7394729;19;20380;-52
2022/10/09 01:20:44;;;;;;;14.80;2.97;;;;;;;6.60;100.00;101896.06;7387794;19;20403;-56
2022/10/09 01:23:29;;;;;;;15.10;3.30;;;;;;;6.60;100.00;101898.63;7395461;19;20409;-52
2022/10/09 01:26:09;;;;;;;10.17;2.70;;;;;;;6.61;100.00;101898.75;7392233;19;20936;-53
2022/10/09 01:28:43;;;;;;;11.63;2.40;;;;;;;6.60;100.00;101901.19;7394907;19;20428;-55
2022/10/09 01:31:14;;;;;;;13.27;4.10;;;;;;;6.58;100.00;101901.09;7389698;19;20879;-57
2022/10/09 01:33:44;;;;;;;9.97;3.23;;;;;;;6.56;100.00;101894.94;7394452;19;20414;-57
2022/10/09 01:36:15;;;;;;;12.20;3.17;;;;;;;6.54;100.00;101886.25;7390801;19;20402;-58
2022/10/09 01:38:45;;;;;;;10.77;3.70;;;;;;;6.55;100.00;101893.16;7396072;19;20401;-55
2022/10/09 01:41:15;;;;;;;8.50;2.97;;;;;;;6.54;100.00;101887.91;7389354;19;20456;-56
2022/10/09 01:43:46;;;;;;;8.60;2.50;;;;;;;6.53;100.00;101893.81;7394267;19;20390;-54
2022/10/09 01:46:22;;;;;;;17.07;3.33;;;;;;;6.54;100.00;101888.81;7391558;19;20768;-58
2022/10/09 01:48:56;;;;;;;24.23;3.70;;;;;;;6.53;100.00;101887.03;7392585;19;20380;-52
2022/10/09 01:51:29;;;;;;;20.87;3.10;;;;;;;6.52;100.00;101886.91;7389791;19;20460;-58
2022/10/09 01:54:03;;;;;;;13.57;3.10;;;;;;;6.52;100.00;101880.13;7393840;19;20380;-53
2022/10/09 01:56:35;;;;;;;14.03;3.00;;;;;;;6.52;100.00;101885.25;7391030;19;20430;-59
2022/10/09 01:59:11;;;;;;;16.67;3.40;;;;;;;6.52;100.00;101880.13;7393473;19;20407;-55
2022/10/09 02:01:44;;;;;;;17.07;3.37;;;;;;;6.53;100.00;101884.47;7387834;19;20487;-53
2022/10/09 02:04:15;;;;;;;14.97;3.33;;;;;;;6.50;100.00;101881.66;7395532;19;20391;-54
2022/10/09 02:06:46;;;;;;;16.00;3.13;;;;;;;6.48;100.00;101888.34;7390713;19;20437;-54
2022/10/09 02:09:17;;;;;;;17.30;3.83;;;;;;;6.57;100.00;101889.03;7393699;19;20391;-57
2022/10/09 02:11:52;;;;;;;8.63;3.33;;;;;;;6.54;100.00;101885.34;7388767;19;20441;-54
2022/10/09 02:14:24;;;;;;;8.13;3.00;;;;;;;6.57;100.00;101886.47;7393424;19;20389;-59
2022/10/09 02:16:56;;;;;;;12.37;2.83;;;;;;;6.57;100.00;101889.03;7389635;19;20796;-54
2022/10/09 02:19:30;;;;;;;12.93;3.10;;;;;;;6.59;100.00;101881.47;7393323;19;20416;-61
2022/10/09 02:22:04;;;;;;;12.20;3.50;;;;;;;6.61;100.00;101892.72;7386813;19;20421;-51
2022/10/09 02:24:34;;;;;;;14.50;3.20;;;;;;;6.64;100.00;101898.09;7393012;19;20388;-59
2022/10/09 02:27:04;;;;;;;9.60;3.03;;;;;;;6.65;100.00;101886.19;7390321;19;20415;-60
2022/10/09 02:29:36;;;;;;;10.87;3.47;;;;;;;6.62;100.00;101880.03;7393119;19;20411;-60
2022/10/09 02:32:06;;;;;;;10.87;3.17;;;;;;;6.62;100.00;101877.47;7386766;19;20409;-59
2022/10/09 02:34:35;;;;;;;11.80;3.20;;;;;;;6.61;100.00;101880.81;7392762;19;20750;-55
2022/10/09 02:37:05;;;;;;;13.47;3.73;;;;;;;6.62;100.00;101882.59;7389150;19;20432;-59
2022/10/09 02:39:34;;;;;;;12.70;2.57;;;;;;;6.62;100.00;101874.91;7392655;19;20392;-56
2022/10/09 02:42:04;;;;;;;19.40;4.00;;;;;;;6.65;100.00;101878.50;7382229;19;20413;-54
2022/10/09 02:44:36;;;;;;;13.80;3.60;;;;;;;6.61;100.00;101877.34;7392448;19;20384;-55
2022/10/09 02:47:05;;;;;;;9.40;2.80;;;;;;;6.59;100.00;101876.34;7389605;19;20437;-54
2022/10/09 02:49:35;;;;;;;10.90;3.57;;;;;;;6.57;100.00;101876.22;7392311;19;20393;-57
2022/10/09 02:52:04;;;;;;;15.80;4.27;;;;;;;6.60;100.00;101873.00;7386497;19;20433;-51
2022/10/09 02:54:33;;;;;;;11.20;3.40;;;;;;;6.56;100.00;101871.88;7392153;19;20453;-60
2022/10/09 02:57:03;;;;;;;17.73;3.90;;;;;;;6.55;100.00;101871.75;7388336;19;21088;-60
2022/10/09 02:59:33;;;;;;;9.87;4.27;;;;;;;6.52;100.00;101880.13;7396932;19;20946;-58
2022/10/09 03:02:05;;;;;;;14.23;3.80;;;;;;;6.52;100.00;101882.69;7392890;19;20431;-59
2022/10/09 03:04:35;;;;;;;8.70;3.27;;;;;;;6.51;100.00;101886.00;7399154;19;20380;-53
2022/10/09 03:07:04;;;;;;;15.47;3.83;;;;;;;6.48;100.00;101889.22;7392124;19;20416;-54
2022/10/09 03:09:34;;;;;;;14.70;3.87;;;;;;;6.50;100.00;101885.91;7399474;19;20384;-61
2022/10/09 03:12:03;;;;;;;18.90;4.80;;;;;;;6.51;100.00;101880.88;7393384;19;20423;-53
2022/10/09 03:14:33;;;;;;;13.63;4.27;;;;;;;6.54;100.00;101883.69;7398791;19;20395;-57
2022/10/09 03:17:05;;;;;;;17.80;5.40;;;;;;;6.53;100.00;101884.47;7396074;19;20981;-64
2022/10/09 03:19:35;;;;;;;13.63;4.20;;;;;;;6.52;100.00;101885.25;7399214;19;20779;-54
2022/10/09 03:22:05;;;;;;;17.47;3.87;;;;;;;6.50;100.00;101885.91;7393461;19;20860;-61
2022/10/09 03:24:34;;;;;;;13.50;3.80;;;;;;;6.48;100.00;101888.34;7398327;19;20414;-56
2022/10/09 03:27:04;;;;;;;11.50;4.00;;;;;;;6.51;100.00;101893.69;7395272;19;20452;-59
2022/10/09 03:29:33;;;;;;;12.20;3.77;;;;;;;6.58;100.00;101887.38;7399518;19;20421;-54
2022/10/09 03:32:02;;;;;;;14.97;4.30;;;;;;;6.81;100.00;101890.81;7393404;19;20426;-56
2022/10/09 03:34:35;;;;;;;24.60;4.40;;;;;;;6.84;100.00;101891.03;7398594;19;20410;-57
2022/10/09 03:37:04;;;;;;;13.93;4.13;;;;;;;6.62;100.00;101887.72;7394462;19;20416;-54
2022/10/09 03:39:34;;;;;;;13.53;4.63;;;;;;;6.64;100.00;101876.69;7398389;19;20390;-52
2022/10/09 03:42:03;;;;;;;17.20;5.33;;;;;;;6.57;100.00;101889.03;7386899;19;21313;-51
2022/10/09 03:44:32;;;;;;;14.00;5.97;;;;;;;6.50;100.00;101886.78;7398276;19;20409;-51
2022/10/09 03:47:02;;;;;;;15.03;4.43;;;;;;;6.41;100.00;101897.22;7394355;19;20399;-49
2022/10/09 03:49:31;;;;;;;14.33;3.80;;;;;;;6.42;100.00;101900.69;7397984;19;20487;-56
2022/10/09 03:52:03;;;;;;;24.53;7.83;;;;;;;6.38;100.00;101907.25;7392370;19;20966;-50
2022/10/09 03:54:33;;;;;;;14.60;4.07;;;;;;;6.34;100.00;101915.47;7397846;19;20414;-55
2022/10/09 03:57:02;;;;;;;13.97;4.37;;;;;;;6.33;100.00;101918.81;7393474;19;20444;-53
2022/10/09 03:59:31;;;;;;;14.13;3.97;;;;;;;6.28;100.00;101921.03;7400820;19;20413;-52
2022/10/09 04:02:01;;;;;;;13.93;3.57;;;;;;;6.29;100.00;101922.81;7391842;19;20436;-56
2022/10/09 04:04:30;;;;;;;12.03;5.13;;;;;;;6.31;100.00;101926.38;7397276;19;20564;-57
2022/10/09 04:07:00;;;;;;;18.07;6.07;;;;;;;6.28;100.00;101926.16;7390010;19;20414;-54
2022/10/09 04:09:32;;;;;;;24.50;6.83;;;;;;;6.29;100.00;101927.03;7397284;19;20389;-58
2022/10/09 04:12:01;;;;;;;14.70;4.40;;;;;;;6.24;100.00;101929.25;7390841;19;20454;-55
2022/10/09 04:14:30;;;;;;;15.90;4.67;;;;;;;6.21;100.00;101941.84;7397097;19;20409;-53
2022/10/09 04:17:00;;;;;;;11.80;4.87;;;;;;;6.20;100.00;101940.94;7392885;19;21107;-50
2022/10/09 04:19:29;;;;;;;11.03;4.47;;;;;;;6.23;100.00;101945.41;7396983;19;20400;-54
2022/10/09 04:21:58;;;;;;;16.30;6.20;;;;;;;6.21;100.00;101946.97;7391712;19;20456;-56
2022/10/09 04:24:28;;;;;;;11.90;5.30;;;;;;;6.17;100.00;101947.50;7397229;19;20390;-50
2022/10/09 04:27:00;;;;;;;13.50;4.37;;;;;;;6.19;100.00;101954.53;7394006;19;20834;-55
2022/10/09 04:29:29;;;;;;;8.50;3.80;;;;;;;6.21;100.00;101952.09;7396988;19;20384;-56
2022/10/09 04:31:59;;;;;;;12.97;4.80;;;;;;;6.26;100.00;101940.50;7389749;19;20425;-60
2022/10/09 04:34:28;;;;;;;8.97;4.77;;;;;;;6.34;100.00;101942.03;7396502;19;20386;-54
2022/10/09 04:36:58;;;;;;;9.90;4.07;;;;;;;6.79;100.00;101952.25;7392749;19;20415;-56
2022/10/09 04:39:27;;;;;;;14.27;6.10;;;;;;;7.19;100.00;101944.09;7396554;19;20391;-51
2022/10/09 04:41:56;;;;;;;44.87;20.87;;;;;;;7.04;100.00;101920.75;7384275;19;20410;-52
2022/10/09 04:44:28;;;;;;;67.07;34.37;;;;;;;7.55;100.00;101918.44;7396202;19;20410;-57
2022/10/09 04:46:58;;;;;;;22.57;8.67;;;;;;;7.21;100.00;101922.00;7391584;19;20418;-55
2022/10/09 04:49:27;;;;;;;54.03;25.07;;;;;;;7.00;100.00;101911.03;7396079;19;20505;-53
2022/10/09 04:51:56;;;;;;;29.63;17.20;;;;;;;7.43;100.00;101924.47;7392766;19;20455;-59
2022/10/09 04:54:26;;;;;;;32.40;16.20;;;;;;;7.80;100.00;101930.50;7395542;19;20412;-54
2022/10/09 04:56:55;;;;;;;28.60;14.60;;;;;;;7.79;100.00;101934.72;7387358;19;20423;-58
2022/10/09 04:59:25;;;;;;;24.80;11.87;;;;;;;8.01;100.00;101940.53;7395700;19;20403;-59
2022/10/09 05:01:57;;;;;;;14.73;6.13;;;;;;;7.77;100.00;101971.38;7390819;19;20438;-57
2022/10/09 05:04:26;;;;;;;9.40;3.70;;;;;;;7.01;100.00;101989.78;7395484;19;20394;-54
2022/10/09 05:06:56;;;;;;;15.70;4.27;;;;;;;6.74;100.00;102010.00;7392262;19;20438;-52
2022/10/09 05:09:25;;;;;;;8.37;3.97;;;;;;;6.53;100.00;102028.06;7395476;19;20474;-56
2022/10/09 05:11:55;;;;;;;9.63;4.10;;;;;;;6.33;100.00;102047.91;7388804;19;20419;-51
2022/10/09 05:14:24;;;;;;;12.50;4.80;;;;;;;6.16;100.00;102058.47;7395265;19;20966;-54
2022/10/09 05:17:01;;;;;;;14.80;3.87;;;;;;;6.08;100.00;102069.00;7390064;19;20421;-55
2022/10/09 05:19:42;;;;;;;9.57;4.63;;;;;;;6.22;100.00;102069.22;7395220;19;20388;-55
2022/10/09 05:22:11;;;;;;;18.37;4.13;;;;;;;6.11;100.00;102077.69;7390459;19;20500;-52
2022/10/09 05:24:41;;;;;;;9.80;3.80;;;;;;;6.07;100.00;102082.56;7393170;19;20406;-58
2022/10/09 05:27:10;;;;;;;11.53;4.03;;;;;;;6.06;100.00;102082.47;7390514;19;20417;-54
2022/10/09 05:29:39;;;;;;;11.13;4.43;;;;;;;5.93;100.00;102085.63;7394915;19;20386;-51
2022/10/09 05:32:11;;;;;;;28.90;4.90;;;;;;;5.79;100.00;102092.16;7388554;19;20430;-52
2022/10/09 05:34:41;;;;;;;10.87;4.17;;;;;;;5.75;100.00;102100.41;7398426;19;20483;-55
2022/10/09 05:37:10;;;;;;;14.70;4.87;;;;;;;5.74;100.00;102093.50;7391542;19;20404;-54
2022/10/09 05:39:40;;;;;;;13.57;4.60;;;;;;;5.75;100.00;102091.03;7394521;19;20421;-55
2022/10/09 05:42:09;;;;;;;13.03;5.57;;;;;;;5.74;100.00;102089.25;7385333;19;20416;-57
2022/10/09 05:44:39;;;;;;;12.90;4.60;;;;;;;5.67;100.00;102092.06;7393419;19;20382;-54
2022/10/09 05:47:08;;;;;;;13.13;5.00;;;;;;;5.62;100.00;102093.34;7387735;19;20798;-55
2022/10/09 05:49:40;;;;;;;16.60;5.17;;;;;;;5.58;100.00;102087.06;7394072;19;20422;-51
2022/10/09 05:52:09;;;;;;;12.53;5.53;;;;;;;5.57;100.00;102086.94;7389324;19;20436;-53
2022/10/09 05:54:40;;;;;;;14.20;5.67;;;;;;;5.53;100.00;102083.22;7393691;19;20397;-54
2022/10/09 05:57:10;;;;;;;11.97;5.37;;;;;;;5.53;100.00;102083.22;7391123;19;20436;-54
2022/10/09 05:59:40;;;;;;;18.93;6.30;;;;;;;5.53;100.00;102073.91;7393807;19;20396;-55
2022/10/09 06:02:10;;;;;;;14.50;5.53;;;;;;;5.56;100.00;102067.22;7388557;19;20430;-59
2022/10/09 06:04:42;;;;;;;19.07;5.13;;;;;;;5.54;100.00;102069.69;7393501;19;20389;-52
2022/10/09 06:07:12;;;;;;;13.97;5.80;;;;;;;5.54;100.00;102070.56;7388134;19;20420;-52
2022/10/09 06:09:41;;;;;;;18.63;6.80;;;;;;;5.52;100.00;102067.00;7393553;19;20743;-52
2022/10/09 06:12:11;;;;;;;13.07;6.10;;;;;;;5.56;100.00;102065.56;7388675;19;20423;-56
2022/10/09 06:14:40;;;;;;;15.73;6.07;;;;;;;5.64;100.00;102058.53;7396694;19;20393;-55
2022/10/09 06:17:10;;;;;;;23.33;6.50;;;;;;;5.66;100.00;102049.31;7388679;19;20409;-56
2022/10/09 06:19:39;;;;;;;17.43;7.50;;;;;;;5.66;100.00;102054.44;7393282;19;20388;-55
2022/10/09 06:22:11;;;;;;;21.43;6.60;;;;;;;5.70;100.00;102047.88;7387847;19;20418;-53
2022/10/09 06:24:40;;;;;;;22.10;8.63;;;;;;;5.78;100.00;102037.50;7391129;19;20387;-51
2022/10/09 06:27:11;;;;;;;18.97;6.23;;;;;;;5.75;100.00;102041.50;7390191;19;20446;-58
2022/10/09 06:29:41;;;;;;;17.67;6.90;;;;;;;5.76;100.00;102040.72;7393120;19;20400;-54
2022/10/09 06:32:10;;;;;;;17.97;6.93;;;;;;;5.78;100.00;102040.06;7387875;19;20417;-54
2022/10/09 06:34:40;;;;;;;19.63;8.83;;;;;;;5.81;100.00;102040.31;7395233;19;20396;-53
2022/10/09 06:37:12;;;;;;;17.70;5.10;;;;;;;5.84;100.00;102041.34;7396354;19;20942;-52
2022/10/09 06:39:41;;;;;;;16.30;6.40;;;;;;;5.90;100.00;102034.16;7400170;19;20388;-57
2022/10/09 06:42:10;;;;;;;17.43;5.80;;;;;;;5.96;100.00;102034.66;7390989;19;20408;-54
2022/10/09 06:44:42;;;;;;;13.63;6.90;;;;;;;5.97;100.00;102036.44;7401332;19;21036;-49
2022/10/09 06:47:11;;;;;;;23.83;7.53;;;;;;;6.00;100.00;102038.38;7396362;19;20427;-55
2022/10/09 06:49:41;;;;;;;16.93;5.87;;;;;;;6.03;100.00;102034.41;7399284;19;20407;-54
2022/10/09 06:52:13;;;;;;;14.93;6.13;;;;;;;6.07;100.00;102028.75;7392585;19;20448;-56
2022/10/09 06:54:42;;;;;;;11.40;6.07;;;;;;;6.11;100.00;102027.34;7400302;19;20421;-58
2022/10/09 06:57:11;;;;;;;21.67;7.13;;;;;;;6.13;100.00;102030.91;7398877;19;20462;-54
2022/10/09 06:59:41;;;;;;;18.43;6.60;;;;;;;6.16;100.00;102030.28;7399744;19;20415;-61
2022/10/09 07:02:10;;;;;;;17.00;6.53;;;;;;;6.20;100.00;102035.75;7392196;19;20463;-58
2022/10/09 07:04:42;;;;;;;18.43;6.77;;;;;;;6.26;100.00;102039.59;7396836;19;20706;-52
2022/10/09 07:07:14;;;;;;;15.60;6.60;;;;;;;6.28;100.00;102038.94;7395190;19;20419;-55
2022/10/09 07:09:43;;;;;;;12.10;6.03;;;;;;;6.32;100.00;102040.97;7400865;19;20400;-53
2022/10/09 07:12:13;;;;;;;22.90;7.00;;;;;;;6.38;100.00;102039.66;7393677;19;20946;-51
2022/10/09 07:14:42;;;;;;;13.00;6.93;;;;;;;6.42;100.00;102032.31;7398075;19;20412;-50
2022/10/09 07:17:11;;;;;;;21.13;7.00;;;;;;;6.49;100.00;102043.97;7395355;19;20420;-56
2022/10/09 07:19:41;;;;;;;13.73;7.37;;;;;;;6.57;100.00;102034.34;7398889;19;20380;-51
2022/10/09 07:22:10;;;;;;;20.60;6.87;;;;;;;6.61;100.00;102034.69;7393939;19;20449;-54
2022/10/09 07:24:42;;;;;;;19.00;7.60;;;;;;;6.70;100.00;102033.59;7397795;19;20395;-50
2022/10/09 07:27:12;;;;;;;23.13;7.60;;;;;;;6.80;100.00;102032.66;7396717;19;20459;-52
2022/10/09 07:29:41;;;;;;;23.03;7.00;;;;;;;6.87;100.00;102037.50;7398615;19;20387;-52
2022/10/09 07:32:11;;;;;;;15.80;6.37;;;;;;;6.92;100.00;102033.59;7392168;19;20437;-55
2022/10/09 07:34:40;;;;;;;13.97;6.60;;;;;;;7.00;100.00;102034.19;7398437;19;20426;-54
2022/10/09 07:37:09;;;;;;;16.93;7.57;;;;;;;7.09;100.00;102034.91;7394672;19;20439;-54
2022/10/09 07:39:39;;;;;;;20.43;6.20;;;;;;;7.18;100.00;102041.53;7398255;19;20386;-49
2022/10/09 07:42:15;;;;;;;18.13;6.37;;;;;;;7.24;100.00;102047.13;7392196;19;20439;-49
2022/10/09 07:44:45;;;;;;;14.00;6.97;;;;;;;7.32;100.00;102048.59;7395968;19;20383;-50
2022/10/09 07:47:14;;;;;;;20.47;6.73;;;;;;;7.43;100.00;102063.13;7392762;19;20448;-52
2022/10/09 07:49:43;;;;;;;16.83;6.93;;;;;;;7.50;100.00;102064.50;7398140;19;20372;-57
2022/10/09 07:52:13;;;;;;;17.57;6.53;;;;;;;7.56;100.00;102074.34;7392233;19;20439;-56
2022/10/09 07:54:42;;;;;;;16.30;6.40;;;;;;;7.66;100.00;102081.06;7397580;19;20391;-53
2022/10/09 07:57:12;;;;;;;12.53;5.83;;;;;;;7.73;100.00;102082.44;7393501;19;20405;-60
2022/10/09 07:59:44;;;;;;;25.53;6.70;;;;;;;7.78;100.00;102086.22;7396580;19;20396;-54
2022/10/09 08:02:13;;;;;;;18.23;6.20;;;;;;;7.89;100.00;102110.16;7391560;19;20421;-52
2022/10/09 08:04:42;;;;;;;26.30;7.23;;;;;;;7.97;100.00;102104.81;7395612;19;20928;-55
2022/10/09 08:07:12;;;;;;;20.13;7.20;;;;;;;8.04;100.00;102120.66;7384222;19;20961;-61
2022/10/09 08:09:41;;;;;;;11.40;6.33;;;;;;;8.11;100.00;102128.94;7396894;19;20910;-56
2022/10/09 08:12:11;;;;;;;20.37;6.10;;;;;;;8.18;100.00;102135.44;7391716;19;20475;-56
2022/10/09 08:14:45;;;;;;;12.17;5.80;;;;;;;8.29;100.00;102143.03;7396640;19;20391;-60
2022/10/09 08:17:15;;;;;;;33.83;6.33;;;;;;;8.38;100.00;102147.16;7394533;19;20466;-50
2022/10/09 08:19:44;;;;;;;13.50;5.70;;;;;;;8.44;100.00;102157.03;7396576;19;20392;-54
2022/10/09 08:22:13;;;;;;;16.80;4.87;;;;;;;8.55;100.00;102172.38;7392490;19;20457;-49
2022/10/09 08:24:43;;;;;;;16.10;5.50;;;;;;;8.59;100.00;102176.94;7395862;19;20395;-56
2022/10/09 08:27:12;;;;;;;14.00;6.03;;;;;;;8.71;100.00;102187.25;7393941;19;20403;-58
2022/10/09 08:29:44;;;;;;;14.20;5.20;;;;;;;8.83;100.00;102197.53;7396916;19;20388;-54
2022/10/09 08:32:14;;;;;;;17.20;6.27;;;;;;;8.95;100.00;102206.13;7391481;19;20941;-57
2022/10/09 08:34:43;;;;;;;12.53;5.13;;;;;;;9.07;100.00;102225.81;7396173;19;20411;-54
2022/10/09 08:37:13;;;;;;;14.90;5.37;;;;;;;9.05;100.00;102215.41;7392923;19;20535;-52
2022/10/09 08:39:42;;;;;;;11.13;4.63;;;;;;;9.18;100.00;102230.06;7395877;19;20921;-53
2022/10/09 08:42:19;;;;;;;17.40;5.67;;;;;;;9.23;100.00;102231.25;7387626;19;20450;-55
2022/10/09 08:44:51;;;;;;;14.30;4.73;;;;;;;9.34;100.00;102236.28;7394629;19;20383;-55
2022/10/09 08:47:23;;;;;;;10.63;3.80;;;;;;;9.41;100.00;102229.09;7392289;19;20430;-53
2022/10/09 08:49:57;;;;;;;20.40;3.80;;;;;;;9.45;100.00;102235.38;7398458;19;20400;-57
2022/10/09 08:52:37;;;;;;;21.57;4.40;;;;;;;9.58;100.00;102238.00;7390588;19;20433;-55
2022/10/09 08:55:14;;;;;;;10.50;3.10;;;;;;;9.69;100.00;102241.31;7395313;19;20392;-56
2022/10/09 08:57:46;;;;;;;15.60;5.37;;;;;;;9.73;100.00;102243.31;7392061;19;20418;-59
2022/10/09 09:00:21;;;;;;;11.97;4.47;;;;;;;9.82;100.00;102232.75;7394553;19;20392;-56
2022/10/09 09:03:14;;;;;;;10.73;4.10;;;;;;;10.00;100.00;102237.34;7391318;19;20457;-55
2022/10/09 09:05:48;;;;;;;13.27;4.73;;;;;;;10.08;100.00;102246.53;7391595;19;20475;-55
2022/10/09 09:08:26;;;;;;;19.87;6.90;;;;;;;10.12;100.00;102248.50;7394941;19;20894;-57
2022/10/09 09:11:03;;;;;;;14.63;3.50;;;;;;;10.32;100.00;102246.41;7393706;19;20395;-56
2022/10/09 09:13:44;;;;;;;8.80;3.07;;;;;;;10.34;100.00;102249.97;7389635;19;20446;-52
2022/10/09 09:16:21;;;;;;;15.47;4.57;;;;;;;10.35;100.00;102249.16;7394646;19;20949;-56
2022/10/09 09:18:59;;;;;;;7.33;2.70;;;;;;;10.47;100.00;102255.97;7390018;19;20750;-58
2022/10/09 09:21:36;;;;;;;10.07;2.47;;;;;;;10.56;100.00;102258.25;7394782;19;20446;-57
2022/10/09 09:24:14;;;;;;;13.77;3.20;;;;;;;10.69;100.00;102255.69;7389398;19;20953;-56
2022/10/09 09:26:45;;;;;;;12.60;3.00;;;;;;;10.81;100.00;102268.50;7394960;19;20483;-55
2022/10/09 09:29:17;;;;;;;9.43;3.20;;;;;;;10.85;100.00;102264.41;7391826;19;20894;-58
2022/10/09 09:31:52;;;;;;;18.43;3.70;;;;;;;11.04;100.00;102271.66;7392701;19;20415;-58
2022/10/09 09:34:24;;;;;;;10.80;3.27;;;;;;;11.04;100.00;102272.53;7392019;19;20410;-60
2022/10/09 09:36:55;;;;;;;17.03;8.50;;;;;;;11.15;100.00;102270.69;7393840;19;20384;-54
2022/10/09 09:39:27;;;;;;;9.27;2.50;;;;;;;11.32;100.00;102271.72;7391776;19;20412;-57
2022/10/09 09:42:19;;;;;;;9.30;2.63;;;;;;;11.20;100.00;102269.28;7392359;19;20967;-51
2022/10/09 09:44:52;;;;;;;19.73;2.00;;;;;;;11.26;100.00;102279.09;7392712;19;20969;-55
2022/10/09 09:47:28;;;;;;;4.50;1.40;;;;;;;11.37;100.00;102271.13;7392034;19;20407;-55
2022/10/09 09:50:00;;;;;;;9.07;1.57;;;;;;;11.52;100.00;102264.31;7393158;19;20709;-55
2022/10/09 09:52:31;;;;;;;7.00;1.80;;;;;;;11.29;100.00;102268.06;7389036;19;20527;-54
2022/10/09 09:55:01;;;;;;;10.90;1.70;;;;;;;11.39;100.00;102269.53;7393006;19;20411;-53
2022/10/09 09:57:34;;;;;;;6.50;2.50;;;;;;;11.57;100.00;102269.78;7391200;19;20417;-57
2022/10/09 10:00:20;;;;;;;7.67;2.00;;;;;;;11.54;100.00;102269.59;7393241;19;20396;-56
2022/10/09 10:03:03;;;;;;;17.70;2.00;;;;;;;11.51;100.00;102282.31;7386625;19;20414;-55
2022/10/09 10:05:37;;;;;;;5.53;1.50;;;;;;;11.47;100.00;102279.56;7392466;19;20388;-54
2022/10/09 10:08:20;;;;;;;3.63;1.70;;;;;;;11.59;100.00;102273.38;7390573;19;20413;-57
2022/10/09 10:10:51;;;;;;;5.17;1.50;;;;;;;11.72;100.00;102273.31;7390886;19;20391;-54
2022/10/09 10:13:22;;;;;;;13.50;1.70;;;;;;;11.84;100.00;102264.53;7390027;19;20758;-55
2022/10/09 10:15:54;;;;;;;11.57;2.87;;;;;;;11.88;100.00;102272.56;7392963;19;20408;-52
2022/10/09 10:18:28;;;;;;;3.30;1.57;;;;;;;11.98;100.00;102262.75;7390066;19;20765;-54
2022/10/09 10:20:58;;;;;;;6.23;1.57;;;;;;;12.00;100.00;102266.34;7391845;19;20741;-55
2022/10/09 10:23:36;;;;;;;10.13;1.50;;;;;;;11.87;100.00;102264.69;7393371;19;20394;-58
2022/10/09 10:26:10;;;;;;;7.43;1.50;;;;;;;11.90;100.00;102264.91;7391089;19;20924;-52
2022/10/09 10:28:49;;;;;;;6.40;1.60;;;;;;;11.96;100.00;102275.63;7392891;19;20381;-54
2022/10/09 10:31:30;;;;;;;7.03;1.60;;;;;;;11.96;100.00;102266.94;7391186;19;20392;-58
2022/10/09 10:34:05;;;;;;;8.13;1.20;;;;;;;12.08;100.00;102267.72;7391974;19;20410;-55
2022/10/09 10:36:34;;;;;;;9.43;1.67;;;;;;;12.05;100.00;102264.06;7392520;19;20381;-52
2022/10/09 10:39:09;;;;;;;9.23;1.40;;;;;;;12.19;100.00;102258.00;7389710;19;20411;-61
2022/10/09 10:41:44;;;;;;;8.23;1.50;;;;;;;12.01;100.00;102263.81;7390706;19;20786;-59
2022/10/09 10:44:22;;;;;;;8.10;1.30;;;;;;;12.11;100.00;102260.13;7392011;19;21239;-56
2022/10/09 10:46:55;;;;;;;15.83;1.90;;;;;;;12.08;100.00;102259.06;7390277;19;20381;-57
2022/10/09 10:49:28;;;;;;;8.30;1.23;;;;;;;11.81;100.00;102265.22;7389005;19;20408;-58
2022/10/09 10:52:11;;;;;;;7.50;1.90;;;;;;;11.99;100.00;102260.25;7389613;19;20419;-53
2022/10/09 10:54:42;;;;;;;13.13;1.67;;;;;;;11.95;100.00;102258.28;7392302;19;20389;-55
2022/10/09 10:57:16;;;;;;;15.40;1.50;;;;;;;12.14;100.00;102259.41;7388924;19;20388;-59
2022/10/09 10:59:55;;;;;;;6.73;2.13;;;;;;;12.51;100.00;102247.75;7391263;19;20400;-58
2022/10/09 11:02:50;;;;;;;7.73;1.77;;;;;;;12.59;100.00;102253.34;7387447;19;20445;-57
2022/10/09 11:05:38;;;;;;;10.50;2.07;;;;;;;12.42;100.00;102255.88;7394968;19;20405;-57
2022/10/09 11:08:22;;;;;;;12.70;2.10;;;;;;;12.65;100.00;102248.53;7389188;19;20413;-57
2022/10/09 11:11:01;;;;;;;10.93;1.87;;;;;;;12.69;100.00;102245.31;7390815;19;20420;-51
2022/10/09 11:13:32;;;;;;;7.37;1.30;;;;;;;12.45;100.00;102252.59;7388207;19;20432;-59
2022/10/09 11:16:15;;;;;;;5.53;1.37;;;;;;;12.77;100.00;102244.03;7391613;19;20391;-56
2022/10/09 11:18:58;;;;;;;4.00;1.00;;;;;;;12.94;100.00;102231.16;7387232;19;20490;-54
2022/10/09 11:21:42;;;;;;;8.27;2.00;;;;;;;12.98;100.00;102240.91;7391708;19;20419;-59
2022/10/09 11:24:31;;;;;;;4.33;1.30;;;;;;;12.81;100.00;102243.41;7395568;19;20427;-58
2022/10/09 11:27:10;;;;;;;5.40;1.20;;;;;;;12.45;100.00;102237.06;7397626;19;20398;-50
2022/10/09 11:29:43;;;;;;;8.47;1.57;;;;;;;12.37;100.00;102232.28;7397623;19;20410;-57
2022/10/09 11:32:17;;;;;;;5.43;1.50;;;;;;;12.46;100.00;102226.75;7393300;19;20422;-59
2022/10/09 11:34:50;;;;;;;4.50;1.17;;;;;;;12.34;100.00;102228.63;7398267;19;20392;-57
2022/10/09 11:37:25;;;;;;;6.50;1.60;;;;;;;12.34;100.00;102223.47;7394673;19;20945;-55
2022/10/09 11:39:54;;;;;;;7.47;1.80;;;;;;;12.51;100.00;102219.28;7398319;19;20379;-53